<?xml version='1.0' encoding='UTF-8'?><gpx version="1.1" creator="JPX - https://github.com/jenetics/jpx" xmlns="http://www.topografix.com/GPX/1/1"><trk><trkseg><trkpt lat="43.3503507" lon="11.988622"><ele>299.0</ele><time>2026-04-26T07:10:53.821Z</time></trkpt><trkpt lat="43.3504741" lon="11.9886508"><ele>299.0</ele><time>2026-04-26T07:10:54.822Z</time></trkpt><trkpt lat="43.3505535" lon="11.9887085"><ele>299.0</ele><time>2026-04-26T07:10:55.823Z</time></trkpt><trkpt lat="43.3536755" lon="11.9792564"><ele>286.0</ele><time>2026-04-26T07:17:54.392Z</time></trkpt><trkpt lat="43.3463459" lon="11.9755852"><ele>286.0</ele><time>2026-04-26T07:19:25.71Z</time></trkpt><trkpt lat="43.3458683" lon="11.9755419"><ele>287.0</ele><time>2026-04-26T07:19:38.585Z</time></trkpt><trkpt lat="43.3451704" lon="11.9747051"><ele>288.0</ele><time>2026-04-26T07:19:45.047Z</time></trkpt><trkpt lat="43.3447514" lon="11.9735676"><ele>293.0</ele><time>2026-04-26T07:20:22.356Z</time></trkpt><trkpt lat="43.3434555" lon="11.9706646"><ele>279.0</ele><time>2026-04-26T07:21:19.298Z</time></trkpt><trkpt lat="43.3429846" lon="11.9673118"><ele>318.0</ele><time>2026-04-26T07:21:46.139Z</time></trkpt><trkpt lat="43.3396868" lon="11.9603442"><ele>268.0</ele><time>2026-04-26T07:23:24.457Z</time></trkpt><trkpt lat="43.3412282" lon="11.9546063"><ele>269.0</ele><time>2026-04-26T07:25:14.501Z</time></trkpt><trkpt lat="43.3425672" lon="11.9539408"><ele>301.0</ele><time>2026-04-26T07:25:20.926Z</time></trkpt><trkpt lat="43.3386322" lon="11.9582133"><ele>262.0</ele><time>2026-04-26T07:27:02.449Z</time></trkpt><trkpt lat="43.3385024" lon="11.9459972"><ele>263.0</ele><time>2026-04-26T07:27:34.877Z</time></trkpt><trkpt lat="43.3399677" lon="11.945092"><ele>264.0</ele><time>2026-04-26T07:28:14.478Z</time></trkpt><trkpt lat="43.3407975" lon="11.9456489"><ele>263.0</ele><time>2026-04-26T07:28:40.237Z</time></trkpt><trkpt lat="43.3399479" lon="11.9451448"><ele>264.0</ele><time>2026-04-26T07:28:52.155Z</time></trkpt><trkpt lat="43.3408025" lon="11.9456505"><ele>262.0</ele><time>2026-04-26T07:29:12.58Z</time></trkpt><trkpt lat="43.3407689" lon="11.9440629"><ele>262.0</ele><time>2026-04-26T07:29:38.535Z</time></trkpt><trkpt lat="43.3411749" lon="11.9405438"><ele>262.0</ele><time>2026-04-26T07:30:09.73Z</time></trkpt><trkpt lat="43.3408479" lon="11.9392955"><ele>261.0</ele><time>2026-04-26T07:30:56.157Z</time></trkpt><trkpt lat="43.3419835" lon="11.9359064"><ele>266.0</ele><time>2026-04-26T07:31:21.882Z</time></trkpt><trkpt lat="43.3423768" lon="11.9355053"><ele>263.0</ele><time>2026-04-26T07:32:05.59Z</time></trkpt><trkpt lat="43.3417944" lon="11.933327"><ele>264.0</ele><time>2026-04-26T07:32:37.938Z</time></trkpt><trkpt lat="43.3411838" lon="11.9316429"><ele>264.0</ele><time>2026-04-26T07:33:19.044Z</time></trkpt><trkpt lat="43.3409726" lon="11.9316071"><ele>264.0</ele><time>2026-04-26T07:33:25.582Z</time></trkpt><trkpt lat="43.3409312" lon="11.9313477"><ele>264.0</ele><time>2026-04-26T07:33:32.143Z</time></trkpt><trkpt lat="43.3408248" lon="11.9309997"><ele>266.0</ele><time>2026-04-26T07:33:38.644Z</time></trkpt><trkpt lat="43.3409872" lon="11.9303382"><ele>263.0</ele><time>2026-04-26T07:33:51.664Z</time></trkpt><trkpt lat="43.3417884" lon="11.9289769"><ele>264.0</ele><time>2026-04-26T07:33:58.178Z</time></trkpt><trkpt lat="43.3400638" lon="11.9304122"><ele>260.0</ele><time>2026-04-26T07:34:04.674Z</time></trkpt><trkpt lat="43.340051" lon="11.9278477"><ele>260.0</ele><time>2026-04-26T07:34:43.821Z</time></trkpt><trkpt lat="43.3399726" lon="11.9277034"><ele>260.0</ele><time>2026-04-26T07:34:50.393Z</time></trkpt><trkpt lat="43.3393341" lon="11.9257258"><ele>260.0</ele><time>2026-04-26T07:35:48.283Z</time></trkpt><trkpt lat="43.3392264" lon="11.9254963"><ele>260.0</ele><time>2026-04-26T07:36:14.338Z</time></trkpt><trkpt lat="43.3385587" lon="11.9250758"><ele>258.5</ele><time>2026-04-26T07:36:53.2Z</time></trkpt><trkpt lat="43.3386773" lon="11.9244995"><ele>257.0</ele><time>2026-04-26T07:36:59.668Z</time></trkpt><trkpt lat="43.334775" lon="11.9264025"><ele>271.0</ele><time>2026-04-26T07:37:06.082Z</time></trkpt><trkpt lat="43.3383336" lon="11.9227897"><ele>271.0</ele><time>2026-04-26T07:37:18.877Z</time></trkpt><trkpt lat="43.3384845" lon="11.9225746"><ele>271.0</ele><time>2026-04-26T07:37:25.419Z</time></trkpt><trkpt lat="43.3384699" lon="11.9220362"><ele>266.0</ele><time>2026-04-26T07:37:32.045Z</time></trkpt><trkpt lat="43.3386106" lon="11.9211781"><ele>270.0</ele><time>2026-04-26T07:37:57.677Z</time></trkpt><trkpt lat="43.3389575" lon="11.920612"><ele>255.0</ele><time>2026-04-26T07:38:04.649Z</time></trkpt><trkpt lat="43.3379391" lon="11.919299"><ele>270.0</ele><time>2026-04-26T07:38:22.561Z</time></trkpt><trkpt lat="43.3388989" lon="11.9204623"><ele>263.0</ele><time>2026-04-26T07:38:48.814Z</time></trkpt><trkpt lat="43.3401676" lon="11.9186103"><ele>263.0</ele><time>2026-04-26T07:38:54.818Z</time></trkpt><trkpt lat="43.340388" lon="11.9184207"><ele>263.0</ele><time>2026-04-26T07:39:08.344Z</time></trkpt><trkpt lat="43.3410352" lon="11.9177407"><ele>262.0</ele><time>2026-04-26T07:39:28.209Z</time></trkpt><trkpt lat="43.3411451" lon="11.9174562"><ele>261.0</ele><time>2026-04-26T07:39:41.976Z</time></trkpt><trkpt lat="43.3413804" lon="11.9172888"><ele>262.0</ele><time>2026-04-26T07:39:48.073Z</time></trkpt><trkpt lat="43.341229" lon="11.9151292"><ele>265.0</ele><time>2026-04-26T07:39:54.833Z</time></trkpt><trkpt lat="43.3417152" lon="11.9161453"><ele>269.0</ele><time>2026-04-26T07:40:15.211Z</time></trkpt><trkpt lat="43.3424232" lon="11.9157096"><ele>269.0</ele><time>2026-04-26T07:40:41.527Z</time></trkpt><trkpt lat="43.3425207" lon="11.915822"><ele>269.0</ele><time>2026-04-26T07:40:54.736Z</time></trkpt><trkpt lat="43.342464" lon="11.9160484"><ele>269.0</ele><time>2026-04-26T07:41:01.503Z</time></trkpt><trkpt lat="43.3431211" lon="11.9160736"><ele>270.5</ele><time>2026-04-26T07:41:21.467Z</time></trkpt><trkpt lat="43.3432443" lon="11.9161023"><ele>272.0</ele><time>2026-04-26T07:41:28.455Z</time></trkpt><trkpt lat="43.3433084" lon="11.9162045"><ele>273.5</ele><time>2026-04-26T07:41:34.988Z</time></trkpt><trkpt lat="43.343445" lon="11.9163092"><ele>275.0</ele><time>2026-04-26T07:41:42.127Z</time></trkpt><trkpt lat="43.34357" lon="11.9163849"><ele>275.0</ele><time>2026-04-26T07:41:48.914Z</time></trkpt><trkpt lat="43.3437192" lon="11.9164861"><ele>275.0</ele><time>2026-04-26T07:42:02.366Z</time></trkpt><trkpt lat="43.3438387" lon="11.9165261"><ele>275.0</ele><time>2026-04-26T07:42:09.25Z</time></trkpt><trkpt lat="43.3439047" lon="11.9166599"><ele>275.0</ele><time>2026-04-26T07:42:15.78Z</time></trkpt><trkpt lat="43.3441412" lon="11.9168798"><ele>277.33333333333337</ele><time>2026-04-26T07:42:22.435Z</time></trkpt><trkpt lat="43.3442188" lon="11.9169495"><ele>279.6666666666667</ele><time>2026-04-26T07:42:29.278Z</time></trkpt><trkpt lat="43.3444843" lon="11.9169868"><ele>282.0</ele><time>2026-04-26T07:42:42.338Z</time></trkpt><trkpt lat="43.3449195" lon="11.9173227"><ele>285.6666666666667</ele><time>2026-04-26T07:43:03.728Z</time></trkpt><trkpt lat="43.3450871" lon="11.9176743"><ele>289.33333333333337</ele><time>2026-04-26T07:43:23.757Z</time></trkpt><trkpt lat="43.3451794" lon="11.9177354"><ele>293.0</ele><time>2026-04-26T07:43:36.088Z</time></trkpt><trkpt lat="43.3451215" lon="11.918172"><ele>293.0</ele><time>2026-04-26T07:43:43.624Z</time></trkpt><trkpt lat="43.3449234" lon="11.9182417"><ele>293.0</ele><time>2026-04-26T07:43:50.177Z</time></trkpt><trkpt lat="43.3447532" lon="11.9184175"><ele>293.0</ele><time>2026-04-26T07:44:03.471Z</time></trkpt><trkpt lat="43.3446355" lon="11.9187617"><ele>293.0</ele><time>2026-04-26T07:44:10.112Z</time></trkpt><trkpt lat="43.3445753" lon="11.9189368"><ele>293.0</ele><time>2026-04-26T07:44:30.043Z</time></trkpt><trkpt lat="43.3444482" lon="11.9192856"><ele>293.0</ele><time>2026-04-26T07:44:36.691Z</time></trkpt><trkpt lat="43.3443929" lon="11.9195777"><ele>297.5</ele><time>2026-04-26T07:44:43.288Z</time></trkpt><trkpt lat="43.344371" lon="11.9197259"><ele>302.0</ele><time>2026-04-26T07:44:49.349Z</time></trkpt><trkpt lat="43.3442644" lon="11.9202333"><ele>305.33333333333337</ele><time>2026-04-26T07:45:08.896Z</time></trkpt><trkpt lat="43.3442138" lon="11.9204931"><ele>308.6666666666667</ele><time>2026-04-26T07:45:16.39Z</time></trkpt><trkpt lat="43.3441932" lon="11.9207093"><ele>312.0</ele><time>2026-04-26T07:45:22.066Z</time></trkpt><trkpt lat="43.3441662" lon="11.9208555"><ele>314.6666666666667</ele><time>2026-04-26T07:45:28.637Z</time></trkpt><trkpt lat="43.3440463" lon="11.9210574"><ele>317.33333333333337</ele><time>2026-04-26T07:45:35.451Z</time></trkpt><trkpt lat="43.343901" lon="11.9211443"><ele>320.0</ele><time>2026-04-26T07:45:41.952Z</time></trkpt><trkpt lat="43.343793" lon="11.9211827"><ele>320.0</ele><time>2026-04-26T07:45:49.684Z</time></trkpt><trkpt lat="43.3438323" lon="11.9213158"><ele>320.0</ele><time>2026-04-26T07:46:01.894Z</time></trkpt><trkpt lat="43.3439462" lon="11.9216073"><ele>320.0</ele><time>2026-04-26T07:46:08.681Z</time></trkpt><trkpt lat="43.3440622" lon="11.9218317"><ele>321.5</ele><time>2026-04-26T07:46:15.184Z</time></trkpt><trkpt lat="43.3440767" lon="11.9220154"><ele>323.0</ele><time>2026-04-26T07:46:21.739Z</time></trkpt><trkpt lat="43.3437975" lon="11.9213014"><ele>323.0</ele><time>2026-04-26T07:46:41.502Z</time></trkpt><trkpt lat="43.3438851" lon="11.9214474"><ele>323.0</ele><time>2026-04-26T07:46:48.055Z</time></trkpt><trkpt lat="43.344104" lon="11.922093"><ele>323.0</ele><time>2026-04-26T07:46:55.553Z</time></trkpt><trkpt lat="43.3438991" lon="11.9215565"><ele>323.0</ele><time>2026-04-26T07:47:33.555Z</time></trkpt><trkpt lat="43.3438297" lon="11.9214101"><ele>323.0</ele><time>2026-04-26T07:47:40.075Z</time></trkpt><trkpt lat="43.3442579" lon="11.9222009"><ele>323.0</ele><time>2026-04-26T07:47:46.376Z</time></trkpt><trkpt lat="43.3444224" lon="11.9225817"><ele>323.0</ele><time>2026-04-26T07:47:54.175Z</time></trkpt><trkpt lat="43.3439994" lon="11.9219063"><ele>306.0</ele><time>2026-04-26T07:48:20.364Z</time></trkpt><trkpt lat="43.3455314" lon="11.9244201"><ele>310.0</ele><time>2026-04-26T07:48:46.783Z</time></trkpt><trkpt lat="43.3457929" lon="11.9246167"><ele>314.0</ele><time>2026-04-26T07:48:53.263Z</time></trkpt><trkpt lat="43.3465196" lon="11.9252919"><ele>320.0</ele><time>2026-04-26T07:49:24.412Z</time></trkpt><trkpt lat="43.3472255" lon="11.9256015"><ele>304.0</ele><time>2026-04-26T07:49:58.592Z</time></trkpt><trkpt lat="43.3471122" lon="11.9262418"><ele>320.0</ele><time>2026-04-26T07:50:05.184Z</time></trkpt><trkpt lat="43.3483225" lon="11.9258873"><ele>320.0</ele><time>2026-04-26T07:50:31.269Z</time></trkpt><trkpt lat="43.348413" lon="11.9253277"><ele>320.0</ele><time>2026-04-26T07:51:16.219Z</time></trkpt><trkpt lat="43.3496736" lon="11.9254548"><ele>307.0</ele><time>2026-04-26T07:52:08.78Z</time></trkpt><trkpt lat="43.3489974" lon="11.9282822"><ele>350.0</ele><time>2026-04-26T07:52:28.27Z</time></trkpt><trkpt lat="43.3511895" lon="11.92472"><ele>350.0</ele><time>2026-04-26T07:53:25.539Z</time></trkpt><trkpt lat="43.3511252" lon="11.9245321"><ele>350.0</ele><time>2026-04-26T07:53:32.371Z</time></trkpt><trkpt lat="43.3512386" lon="11.924811"><ele>350.0</ele><time>2026-04-26T07:53:38.444Z</time></trkpt><trkpt lat="43.3513304" lon="11.9254844"><ele>314.0</ele><time>2026-04-26T07:53:45.811Z</time></trkpt><trkpt lat="43.3505646" lon="11.9309119"><ele>352.0</ele><time>2026-04-26T07:55:03.64Z</time></trkpt><trkpt lat="43.352305" lon="11.9307311"><ele>375.0</ele><time>2026-04-26T07:55:29.453Z</time></trkpt><trkpt lat="43.3531572" lon="11.9295932"><ele>352.0</ele><time>2026-04-26T07:56:08.22Z</time></trkpt><trkpt lat="43.3526449" lon="11.9307611"><ele>380.0</ele><time>2026-04-26T07:57:18.918Z</time></trkpt><trkpt lat="43.3530521" lon="11.9315252"><ele>314.0</ele><time>2026-04-26T07:57:50.266Z</time></trkpt><trkpt lat="43.3505668" lon="11.9309087"><ele>366.0</ele><time>2026-04-26T07:58:37.102Z</time></trkpt><trkpt lat="43.3527736" lon="11.9332085"><ele>364.25</ele><time>2026-04-26T07:58:49.043Z</time></trkpt><trkpt lat="43.35281" lon="11.9334222"><ele>362.5</ele><time>2026-04-26T07:58:56.815Z</time></trkpt><trkpt lat="43.3528322" lon="11.9335975"><ele>360.75</ele><time>2026-04-26T07:59:03.375Z</time></trkpt><trkpt lat="43.3529207" lon="11.9336166"><ele>359.0</ele><time>2026-04-26T07:59:09.891Z</time></trkpt><trkpt lat="43.345703" lon="11.9349809"><ele>262.0</ele><time>2026-04-26T08:01:17.127Z</time></trkpt><trkpt lat="43.340927" lon="11.9278229"><ele>314.0</ele><time>2026-04-26T08:01:31.36Z</time></trkpt><trkpt lat="43.3424057" lon="11.9242067"><ele>426.0</ele><time>2026-04-26T08:02:09.133Z</time></trkpt><trkpt lat="43.3567802" lon="11.9414997"><ele>271.0</ele><time>2026-04-26T08:06:19.685Z</time></trkpt><trkpt lat="43.3442826" lon="11.9323224"><ele>314.0</ele><time>2026-04-26T08:07:49.758Z</time></trkpt><trkpt lat="43.3423267" lon="11.9237352"><ele>508.0</ele><time>2026-04-26T08:08:09.177Z</time></trkpt><trkpt lat="43.3593238" lon="11.9492948"><ele>508.0</ele><time>2026-04-26T08:13:04.668Z</time></trkpt><trkpt lat="43.3593571" lon="11.9497803"><ele>508.0</ele><time>2026-04-26T08:13:23.296Z</time></trkpt><trkpt lat="43.3578091" lon="11.9491869"><ele>311.0</ele><time>2026-04-26T08:15:25.776Z</time></trkpt><trkpt lat="43.3546767" lon="11.9590398"><ele>510.0</ele><time>2026-04-26T08:18:47.425Z</time></trkpt><trkpt lat="43.3581915" lon="11.9511204"><ele>572.0</ele><time>2026-04-26T08:19:44.926Z</time></trkpt><trkpt lat="43.367901" lon="11.9518364"><ele>510.0</ele><time>2026-04-26T08:26:40.972Z</time></trkpt><trkpt lat="43.3581308" lon="11.9510207"><ele>479.0</ele><time>2026-04-26T08:32:40.423Z</time></trkpt><trkpt lat="43.3577951" lon="11.9492006"><ele>426.0</ele><time>2026-04-26T08:34:17.09Z</time></trkpt><trkpt lat="43.3568152" lon="11.9414805"><ele>359.0</ele><time>2026-04-26T08:36:38.454Z</time></trkpt><trkpt lat="43.3529242" lon="11.9336125"><ele>359.0</ele><time>2026-04-26T08:38:52.959Z</time></trkpt><trkpt lat="43.3528403" lon="11.9336053"><ele>359.0</ele><time>2026-04-26T08:38:59.454Z</time></trkpt><trkpt lat="43.3527038" lon="11.9332338"><ele>359.0</ele><time>2026-04-26T08:39:05.896Z</time></trkpt><trkpt lat="43.3530241" lon="11.9314872"><ele>375.0</ele><time>2026-04-26T08:39:30.287Z</time></trkpt><trkpt lat="43.3531561" lon="11.9295942"><ele>342.0</ele><time>2026-04-26T08:39:51.14Z</time></trkpt><trkpt lat="43.3513106" lon="11.9255034"><ele>350.0</ele><time>2026-04-26T08:41:01.982Z</time></trkpt><trkpt lat="43.3511297" lon="11.9245787"><ele>331.0</ele><time>2026-04-26T08:42:05.276Z</time></trkpt><trkpt lat="43.3465494" lon="11.9250518"><ele>317.0</ele><time>2026-04-26T08:43:16.46Z</time></trkpt><trkpt lat="43.3459709" lon="11.9247753"><ele>317.0</ele><time>2026-04-26T08:43:24.086Z</time></trkpt><trkpt lat="43.3458328" lon="11.9246611"><ele>317.0</ele><time>2026-04-26T08:43:30.541Z</time></trkpt><trkpt lat="43.3455009" lon="11.9243871"><ele>318.0</ele><time>2026-04-26T08:43:37.039Z</time></trkpt><trkpt lat="43.3453756" lon="11.9237049"><ele>323.5</ele><time>2026-04-26T08:43:42.419Z</time></trkpt><trkpt lat="43.3451068" lon="11.923263"><ele>329.0</ele><time>2026-04-26T08:43:50.044Z</time></trkpt><trkpt lat="43.3450053" lon="11.9232139"><ele>329.0</ele><time>2026-04-26T08:43:56.658Z</time></trkpt><trkpt lat="43.3451597" lon="11.922782"><ele>329.0</ele><time>2026-04-26T08:45:21.86Z</time></trkpt><trkpt lat="43.3440468" lon="11.9216413"><ele>321.0</ele><time>2026-04-26T08:45:28.452Z</time></trkpt><trkpt lat="43.343549" lon="11.9230284"><ele>321.0</ele><time>2026-04-26T08:45:53.989Z</time></trkpt><trkpt lat="43.3436172" lon="11.9232905"><ele>321.0</ele><time>2026-04-26T08:46:00.965Z</time></trkpt><trkpt lat="43.343678" lon="11.9234735"><ele>321.0</ele><time>2026-04-26T08:46:07.534Z</time></trkpt><trkpt lat="43.3432079" lon="11.9274824"><ele>264.0</ele><time>2026-04-26T08:46:33.328Z</time></trkpt><trkpt lat="43.3421014" lon="11.929307"><ele>275.0</ele><time>2026-04-26T08:46:39.836Z</time></trkpt><trkpt lat="43.342576" lon="11.9264419"><ele>268.0</ele><time>2026-04-26T08:46:59.301Z</time></trkpt><trkpt lat="43.3423179" lon="11.9278773"><ele>263.0</ele><time>2026-04-26T08:47:18.877Z</time></trkpt><trkpt lat="43.3420547" lon="11.9286563"><ele>264.0</ele><time>2026-04-26T08:47:24.369Z</time></trkpt><trkpt lat="43.3421654" lon="11.9293547"><ele>264.0</ele><time>2026-04-26T08:47:37.579Z</time></trkpt><trkpt lat="43.3421014" lon="11.929307"><ele>264.0</ele><time>2026-04-26T08:47:58.52Z</time></trkpt><trkpt lat="43.3405285" lon="11.9278924"><ele>264.0</ele><time>2026-04-26T08:48:05.13Z</time></trkpt><trkpt lat="43.3400453" lon="11.9304165"><ele>262.0</ele><time>2026-04-26T08:48:18.19Z</time></trkpt><trkpt lat="43.3406688" lon="11.9279812"><ele>266.0</ele><time>2026-04-26T08:48:31.198Z</time></trkpt><trkpt lat="43.3407076" lon="11.9308559"><ele>265.33333333333337</ele><time>2026-04-26T08:48:37.618Z</time></trkpt><trkpt lat="43.3408309" lon="11.9309927"><ele>264.6666666666667</ele><time>2026-04-26T08:48:44.109Z</time></trkpt><trkpt lat="43.3408377" lon="11.93132"><ele>264.0</ele><time>2026-04-26T08:48:50.596Z</time></trkpt><trkpt lat="43.3407026" lon="11.9313864"><ele>262.0</ele><time>2026-04-26T08:48:57.067Z</time></trkpt><trkpt lat="43.3411982" lon="11.9317645"><ele>263.0</ele><time>2026-04-26T08:49:03.557Z</time></trkpt><trkpt lat="43.3418049" lon="11.9333504"><ele>264.0</ele><time>2026-04-26T08:49:29.52Z</time></trkpt><trkpt lat="43.3423422" lon="11.9348989"><ele>264.6666666666667</ele><time>2026-04-26T08:49:55.42Z</time></trkpt><trkpt lat="43.3423565" lon="11.9353468"><ele>265.33333333333337</ele><time>2026-04-26T08:50:32.808Z</time></trkpt><trkpt lat="43.3423768" lon="11.9355053"><ele>266.0</ele><time>2026-04-26T08:50:40.696Z</time></trkpt><trkpt lat="43.3365584" lon="11.936221"><ele>265.0</ele><time>2026-04-26T08:51:32.335Z</time></trkpt><trkpt lat="43.3422468" lon="11.9394423"><ele>261.0</ele><time>2026-04-26T08:51:51.773Z</time></trkpt><trkpt lat="43.3419816" lon="11.9359017"><ele>262.0</ele><time>2026-04-26T08:52:11.184Z</time></trkpt><trkpt lat="43.3411716" lon="11.9405412"><ele>264.0</ele><time>2026-04-26T08:52:22.951Z</time></trkpt><trkpt lat="43.3408013" lon="11.945641"><ele>263.0</ele><time>2026-04-26T08:53:15.904Z</time></trkpt><trkpt lat="43.3399081" lon="11.9452051"><ele>262.0</ele><time>2026-04-26T08:54:06.509Z</time></trkpt><trkpt lat="43.3385027" lon="11.9459964"><ele>268.0</ele><time>2026-04-26T08:54:52.581Z</time></trkpt><trkpt lat="43.3412277" lon="11.9545993"><ele>270.0</ele><time>2026-04-26T08:57:52.265Z</time></trkpt><trkpt lat="43.3416493" lon="11.9584133"><ele>318.0</ele><time>2026-04-26T08:59:48.542Z</time></trkpt><trkpt lat="43.3396852" lon="11.9603447"><ele>270.0</ele><time>2026-04-26T09:00:01.487Z</time></trkpt><trkpt lat="43.3416426" lon="11.9584138"><ele>318.0</ele><time>2026-04-26T09:00:33.646Z</time></trkpt><trkpt lat="43.3396858" lon="11.9603507"><ele>270.0</ele><time>2026-04-26T09:00:52.957Z</time></trkpt><trkpt lat="43.3416426" lon="11.9584138"><ele>318.0</ele><time>2026-04-26T09:01:12.319Z</time></trkpt><trkpt lat="43.3396705" lon="11.9603166"><ele>270.0</ele><time>2026-04-26T09:01:38.027Z</time></trkpt><trkpt lat="43.3416492" lon="11.9584147"><ele>318.0</ele><time>2026-04-26T09:02:16.614Z</time></trkpt><trkpt lat="43.3396874" lon="11.9603479"><ele>270.0</ele><time>2026-04-26T09:02:42.324Z</time></trkpt><trkpt lat="43.3416492" lon="11.9584147"><ele>318.0</ele><time>2026-04-26T09:03:14.278Z</time></trkpt><trkpt lat="43.3396874" lon="11.9603479"><ele>279.0</ele><time>2026-04-26T09:03:46.368Z</time></trkpt><trkpt lat="43.3429804" lon="11.9673137"><ele>293.0</ele><time>2026-04-26T09:06:20.473Z</time></trkpt><trkpt lat="43.3434555" lon="11.9706581"><ele>288.0</ele><time>2026-04-26T09:06:54.365Z</time></trkpt><trkpt lat="43.3447443" lon="11.9735374"><ele>287.0</ele><time>2026-04-26T09:08:37.936Z</time></trkpt><trkpt lat="43.3451807" lon="11.9747064"><ele>286.0</ele><time>2026-04-26T09:09:23.199Z</time></trkpt><trkpt lat="43.3458249" lon="11.975478"><ele>286.0</ele><time>2026-04-26T09:09:29.643Z</time></trkpt><trkpt lat="43.3463512" lon="11.9755845"><ele>394.0</ele><time>2026-04-26T09:09:42.437Z</time></trkpt><trkpt lat="43.3416021" lon="11.9878203"><ele>290.0</ele><time>2026-04-26T09:11:25.565Z</time></trkpt><trkpt lat="43.3536728" lon="11.9792442"><ele>299.0</ele><time>2026-04-26T09:12:30.189Z</time></trkpt><trkpt lat="43.3500045" lon="11.9883804"><ele>299.0</ele><time>2026-04-26T09:15:34.834Z</time></trkpt></trkseg></trk></gpx>